Time;durP1;ratioP1;P1;durP2;ratioP2;P2;SDS_P1;SDS_P2;PMS_P1;PMS_P2;Temp;Humidity;BMP_temperature;BMP_pressure;BME280_temperature;BME280_humidity;BME280_pressure;Samples;Min_cycle;Max_cycle;Signal;HPM_P1;HPM_P2
2023/09/23 00:00:15;;;;;;;25.87;8.03;;;22.50;95.90;;;23.06;58.77;95020.38;5078042;28;20584;-66
2023/09/23 00:02:44;;;;;;;21.97;6.00;;;22.50;96.20;;;23.03;58.95;95024.28;5075256;28;20783;-68
2023/09/23 00:05:14;;;;;;;16.77;6.00;;;22.50;96.80;;;23.00;59.17;95026.59;5079176;28;20504;-66
2023/09/23 00:07:42;;;;;;;19.70;6.60;;;22.40;96.40;;;22.97;59.15;95024.34;5078622;28;20446;-65
2023/09/23 00:10:11;;;;;;;19.17;7.00;;;22.40;96.60;;;22.94;59.16;95024.75;5073945;28;20571;-66
2023/09/23 00:12:38;;;;;;;25.63;7.40;;;22.40;96.90;;;22.89;59.78;95031.56;5077168;28;20458;-59
2023/09/23 00:17:55;;;;;;;13.80;6.57;;;22.30;97.30;;;22.83;59.79;95027.06;5077840;28;20540;-66
2023/09/23 00:20:22;;;;;;;20.60;7.07;;;22.20;97.40;;;22.81;59.94;95034.50;5072308;28;20601;-68
2023/09/23 00:22:54;;;;;;;13.17;5.90;;;22.20;97.60;;;22.77;59.88;95019.88;5077603;28;20459;-68
2023/09/23 00:25:23;;;;;;;30.90;6.80;;;22.20;97.60;;;22.74;59.65;95017.59;5077323;28;20473;-66
2023/09/23 00:27:53;;;;;;;20.40;5.90;;;22.20;97.70;;;22.71;59.80;95031.44;5079380;28;20465;-65
2023/09/23 00:30:22;;;;;;;13.63;6.17;;;22.20;97.50;;;22.65;59.92;95032.28;5077851;28;20509;-64
2023/09/23 00:32:50;;;;;;;27.60;6.00;;;22.10;97.80;;;22.63;59.80;95021.78;5064970;28;20455;-58
2023/09/23 00:35:18;;;;;;;14.37;5.63;;;22.00;97.90;;;22.61;60.58;95023.03;5078015;28;20466;-65
2023/09/23 00:37:48;;;;;;;11.93;5.70;;;22.00;98.00;;;22.59;60.22;95025.09;5079622;28;20540;-60
2023/09/23 00:40:17;;;;;;;22.00;7.03;;;22.00;98.00;;;22.57;60.39;95030.66;5079238;28;20494;-65
2023/09/23 00:42:47;;;;;;;11.40;5.20;;;22.00;98.00;;;22.53;60.71;95032.94;5075698;28;20451;-66
2023/09/23 00:45:16;;;;;;;28.80;6.03;;;22.00;98.10;;;22.50;60.31;95028.00;5080375;28;20527;-59
2023/09/23 00:47:46;;;;;;;11.73;5.77;;;21.90;98.00;;;22.46;60.11;95026.75;5080145;28;20456;-65
2023/09/23 00:50:18;;;;;;;14.10;6.03;;;21.90;98.00;;;22.44;59.94;95022.66;5081613;28;20457;-65
2023/09/23 00:52:48;;;;;;;17.77;5.60;;;21.90;98.20;;;22.42;60.77;95017.53;5078896;28;20998;-58
2023/09/23 00:55:17;;;;;;;22.10;6.47;;;21.90;98.30;;;22.41;60.52;95018.53;5081296;28;20557;-59
2023/09/23 00:57:48;;;;;;;11.80;5.80;;;21.80;98.40;;;22.40;60.67;95019.56;5078779;28;20508;-58
2023/09/23 01:00:24;;;;;;;32.63;5.60;;;21.80;98.40;;;22.40;60.68;95029.47;5081602;28;20855;-66
2023/09/23 01:02:55;;;;;;;16.63;4.90;;;21.90;98.50;;;22.40;60.46;95026.78;5074302;28;20522;-59
2023/09/23 01:05:26;;;;;;;7.93;5.17;;;21.80;98.70;;;22.38;60.53;95018.97;5083496;28;20465;-66
2023/09/23 01:07:58;;;;;;;17.03;5.07;;;21.80;98.60;;;22.35;60.77;95019.38;5078587;28;20485;-66
2023/09/23 01:10:25;;;;;;;14.40;5.50;;;21.80;98.70;;;22.34;60.62;95023.13;5080442;28;20504;-65
2023/09/23 01:12:53;;;;;;;17.50;5.93;;;21.80;98.80;;;22.31;60.91;95023.53;5079123;28;20913;-58
2023/09/23 01:15:25;;;;;;;22.83;6.53;;;21.80;98.80;;;22.29;60.85;95022.88;5073604;28;20466;-65
2023/09/23 01:17:54;;;;;;;14.13;5.70;;;21.70;98.90;;;22.27;60.79;95017.72;5081034;28;20465;-66
2023/09/23 01:20:21;;;;;;;19.43;6.23;;;21.70;99.10;;;22.25;61.00;95019.78;5080281;28;20494;-66
2023/09/23 01:22:50;;;;;;;9.23;5.50;;;21.70;99.20;;;22.22;61.34;95017.53;5079920;28;20450;-58
2023/09/23 01:25:18;;;;;;;16.93;6.73;;;21.70;99.10;;;22.15;61.19;95017.53;5079667;28;20478;-66
2023/09/23 01:27:45;;;;;;;18.13;6.00;;;21.60;99.20;;;22.13;61.85;95014.22;5079576;28;20495;-59
2023/09/23 01:30:13;;;;;;;15.13;6.67;;;21.60;99.50;;;22.11;61.33;95018.16;5080162;28;20480;-66
2023/09/23 01:32:49;;;;;;;9.97;5.30;;;21.60;99.60;;;22.10;61.74;95017.31;5076480;28;20919;-65
2023/09/23 01:35:17;;;;;;;11.03;6.00;;;21.60;99.80;;;22.08;62.11;95011.38;5080035;28;20474;-66
2023/09/23 01:37:45;;;;;;;11.87;6.00;;;21.50;99.90;;;22.07;61.82;95012.38;5079060;28;20523;-67
2023/09/23 01:40:17;;;;;;;34.20;7.50;;;21.60;99.90;;;22.03;61.99;95012.00;5079658;28;20526;-57
2023/09/23 01:42:44;;;;;;;22.13;6.50;;;21.50;99.90;;;21.99;62.21;95010.75;5078528;28;21039;-59
2023/09/23 01:45:13;;;;;;;22.90;6.53;;;21.50;99.90;;;21.97;62.48;95020.03;5080113;28;20862;-66
2023/09/23 01:47:41;;;;;;;23.37;5.80;;;21.40;99.90;;;21.95;62.66;95019.41;5078795;28;21021;-66
2023/09/23 01:50:10;;;;;;;20.57;6.37;;;21.40;99.90;;;21.93;62.54;95016.13;5079281;28;20462;-59
2023/09/23 01:52:38;;;;;;;10.67;5.33;;;21.40;99.90;;;21.91;62.67;95023.53;5078582;28;20444;-59
2023/09/23 01:55:06;;;;;;;22.10;7.10;;;21.30;99.90;;;21.90;62.33;95021.88;5080263;28;20481;-66
2023/09/23 01:57:36;;;;;;;19.67;7.30;;;21.40;99.90;;;21.84;62.07;95021.69;5078782;28;20477;-66
2023/09/23 02:00:04;;;;;;;21.13;6.20;;;21.30;99.90;;;21.81;62.52;95019.41;5079756;28;20491;-58
2023/09/23 02:02:32;;;;;;;16.13;6.47;;;21.30;99.90;;;21.81;62.66;95015.91;5078241;28;20458;-59
2023/09/23 02:04:59;;;;;;;20.50;6.70;;;21.30;99.90;;;21.81;62.90;95021.25;5079285;28;20486;-64
2023/09/23 02:07:27;;;;;;;22.40;7.87;;;21.30;99.90;;;21.79;63.08;95018.78;5073611;28;20899;-59
2023/09/23 02:09:54;;;;;;;16.73;6.90;;;21.30;99.90;;;21.77;63.24;95026.22;5074377;28;20490;-58
2023/09/23 02:12:21;;;;;;;15.90;6.60;;;21.30;99.90;;;21.75;63.42;95030.97;5079405;28;20474;-64
2023/09/23 02:14:51;;;;;;;12.77;6.10;;;21.30;99.90;;;21.74;63.42;95033.84;5083776;28;21040;-60
2023/09/23 02:17:20;;;;;;;24.23;6.97;;;21.20;99.90;;;21.71;63.49;95042.28;5083051;28;20565;-66
2023/09/23 02:19:47;;;;;;;24.80;7.17;;;21.20;99.90;;;21.66;63.32;95042.91;5082324;28;20536;-59
2023/09/23 02:22:16;;;;;;;11.77;6.43;;;21.10;99.90;;;21.65;63.74;95035.88;5082051;28;20451;-67
2023/09/23 02:24:43;;;;;;;17.80;6.53;;;21.10;99.90;;;21.64;63.72;95039.56;5079077;28;20503;-67
2023/09/23 02:27:10;;;;;;;26.67;7.53;;;21.10;99.90;;;21.61;63.83;95045.34;5084279;28;20446;-66
2023/09/23 02:29:40;;;;;;;19.13;6.23;;;21.10;99.90;;;21.58;64.05;95040.38;5082464;28;20473;-60
2023/09/23 02:32:09;;;;;;;15.13;7.80;;;21.00;99.90;;;21.56;63.78;95048.63;5083053;28;20522;-64
2023/09/23 02:34:38;;;;;;;9.50;6.30;;;21.00;99.90;;;21.52;64.40;95049.22;5075255;28;20471;-58
2023/09/23 02:37:05;;;;;;;14.60;6.50;;;21.00;99.90;;;21.51;64.43;95051.09;5082521;28;20454;-66
2023/09/23 02:39:33;;;;;;;29.43;6.93;;;21.00;99.90;;;21.49;64.59;95053.16;5080664;28;20832;-65
2023/09/23 02:42:04;;;;;;;16.03;8.03;;;21.00;99.90;;;21.47;64.36;95058.69;5087530;28;21011;-65
2023/09/23 02:44:31;;;;;;;17.00;7.80;;;21.00;99.90;;;21.45;64.25;95059.91;5082566;28;20458;-66
2023/09/23 02:46:58;;;;;;;15.17;7.13;;;20.90;99.90;;;21.42;64.50;95063.00;5082280;28;20449;-59
2023/09/23 02:49:27;;;;;;;16.93;6.30;;;20.90;99.90;;;21.42;64.54;95063.00;5080668;28;20512;-58
2023/09/23 02:51:54;;;;;;;19.27;6.80;;;20.90;99.90;;;21.40;64.82;95062.38;5082184;28;20443;-60
2023/09/23 02:54:21;;;;;;;16.00;6.80;;;20.90;99.90;;;21.39;64.89;95061.53;5082808;28;20537;-61
2023/09/23 02:56:50;;;;;;;16.20;7.53;;;20.90;99.90;;;21.35;64.77;95056.78;5079248;28;20967;-59
2023/09/23 02:59:25;;;;;;;23.97;7.47;;;20.80;99.90;;;21.30;64.73;95065.41;5072424;28;20475;-59
2023/09/23 03:01:53;;;;;;;18.47;6.83;;;20.80;99.90;;;21.26;65.11;95056.16;5077322;28;20461;-66
2023/09/23 03:04:23;;;;;;;18.60;7.47;;;20.70;99.90;;;21.23;65.16;95061.91;5076314;28;20484;-66
2023/09/23 03:06:56;;;;;;;21.80;7.37;;;20.70;99.90;;;21.19;65.18;95060.66;5080761;28;20532;-67
2023/09/23 03:09:25;;;;;;;20.17;8.23;;;20.70;99.90;;;21.16;65.26;95061.06;5082841;28;20471;-59
2023/09/23 03:11:55;;;;;;;20.67;7.00;;;20.60;99.90;;;21.13;65.34;95063.13;5083078;28;20472;-60
2023/09/23 03:14:28;;;;;;;21.33;7.23;;;20.60;99.90;;;21.10;65.47;95060.84;5077899;28;20526;-58
2023/09/23 03:16:57;;;;;;;23.27;7.00;;;20.60;99.90;;;21.10;65.98;95057.34;5076149;28;20508;-67
2023/09/23 03:19:25;;;;;;;17.53;7.17;;;20.60;99.90;;;21.07;65.45;95069.28;5076225;28;20469;-60
2023/09/23 03:21:56;;;;;;;26.57;6.50;;;20.60;99.90;;;21.06;65.44;95064.13;5071090;28;20534;-59
2023/09/23 03:24:25;;;;;;;16.53;6.50;;;20.50;99.90;;;21.03;65.66;95070.69;5077134;28;20489;-64
2023/09/23 03:26:53;;;;;;;26.93;8.07;;;20.50;99.90;;;21.02;65.75;95073.56;5082925;28;20450;-66
2023/09/23 03:29:22;;;;;;;13.17;6.57;;;20.50;99.90;;;20.98;66.10;95067.78;5079766;28;20466;-67
2023/09/23 03:31:49;;;;;;;16.93;7.80;;;20.50;99.90;;;20.96;65.77;95067.19;5079144;28;21285;-58
2023/09/23 03:34:16;;;;;;;15.30;6.10;;;20.40;99.90;;;20.94;65.95;95061.19;5078485;28;21018;-65
2023/09/23 03:36:44;;;;;;;15.47;7.50;;;20.40;99.90;;;20.94;65.97;95061.19;5077081;28;20490;-65
2023/09/23 03:39:13;;;;;;;15.43;7.77;;;20.40;99.90;;;20.92;66.08;95069.41;5069780;28;20563;-60
2023/09/23 03:41:44;;;;;;;21.80;7.87;;;20.40;99.90;;;20.91;66.05;95061.59;5074413;28;20550;-59
2023/09/23 03:44:11;;;;;;;19.17;7.47;;;20.40;99.90;;;20.87;66.27;95063.84;5074474;28;20568;-60
2023/09/23 03:46:39;;;;;;;29.40;8.23;;;20.40;99.90;;;20.86;66.28;95066.72;5074389;28;20466;-59
2023/09/23 03:49:08;;;;;;;23.53;7.70;;;20.40;99.90;;;20.81;66.37;95072.66;5073861;28;20524;-66
2023/09/23 03:51:37;;;;;;;24.40;7.63;;;20.30;99.90;;;20.80;66.31;95064.84;5075380;28;20776;-66
2023/09/23 03:54:05;;;;;;;27.70;8.60;;;20.30;99.90;;;20.75;66.30;95068.91;5070836;28;20868;-66
2023/09/23 03:56:34;;;;;;;15.63;7.67;;;20.30;99.90;;;20.70;66.49;95066.03;5073017;28;20885;-58
2023/09/23 03:59:03;;;;;;;17.83;8.33;;;20.20;99.90;;;20.67;66.31;95074.44;5075208;28;20546;-59
2023/09/23 04:01:30;;;;;;;19.17;7.57;;;20.20;99.90;;;20.66;66.45;95075.44;5083361;28;20493;-59
2023/09/23 04:03:57;;;;;;;17.07;7.80;;;20.10;99.90;;;20.65;67.01;95081.84;5081316;28;20565;-58
2023/09/23 04:06:25;;;;;;;28.93;7.73;;;20.10;99.90;;;20.65;67.09;95083.66;5076397;28;20890;-59
2023/09/23 04:08:55;;;;;;;15.73;6.93;;;20.10;99.90;;;20.64;67.22;95093.50;5071422;28;20843;-61
2023/09/23 04:11:22;;;;;;;12.90;7.47;;;20.10;99.90;;;20.63;67.15;95093.72;5072348;28;20468;-59
2023/09/23 04:13:51;;;;;;;18.63;7.00;;;20.10;99.90;;;20.63;67.31;95097.19;5072278;28;20481;-66
2023/09/23 04:16:19;;;;;;;24.97;8.23;;;20.10;99.90;;;20.63;67.20;95107.88;5067496;28;20466;-65
2023/09/23 04:18:46;;;;;;;24.80;7.53;;;20.10;99.90;;;20.64;67.10;95104.19;5073599;28;20481;-59
2023/09/23 04:21:14;;;;;;;20.83;8.57;;;20.10;99.90;;;20.62;66.98;95111.59;5074614;28;20493;-60
2023/09/23 04:23:41;;;;;;;34.77;8.33;;;20.10;99.90;;;20.61;67.22;95104.59;5077909;28;20459;-58
2023/09/23 04:26:08;;;;;;;13.70;8.60;;;20.10;99.90;;;20.62;67.61;95110.75;5077514;28;20466;-66
2023/09/23 04:28:36;;;;;;;16.30;7.30;;;20.10;99.90;;;20.60;67.26;95110.94;5075664;28;20489;-67
2023/09/23 04:31:04;;;;;;;29.20;8.67;;;20.10;99.90;;;20.59;67.05;95112.00;5076963;28;20458;-59
2023/09/23 04:33:32;;;;;;;28.83;7.53;;;20.10;99.90;;;20.59;67.16;95112.00;5073975;28;20447;-58
2023/09/23 04:35:59;;;;;;;18.40;7.60;;;20.10;99.90;;;20.59;67.33;95120.00;5076641;28;20539;-60
2023/09/23 04:38:26;;;;;;;12.27;6.83;;;20.10;99.90;;;20.59;67.58;95118.16;5061753;28;20982;-66
2023/09/23 04:40:54;;;;;;;12.17;7.47;;;20.10;99.90;;;20.60;66.99;95129.66;5071456;28;20487;-65
2023/09/23 04:43:21;;;;;;;24.43;7.30;;;20.10;99.90;;;20.60;66.97;95125.16;5074648;28;20528;-67
2023/09/23 04:45:48;;;;;;;22.00;7.50;;;20.10;99.90;;;20.61;67.06;95131.31;5073439;28;20479;-65
2023/09/23 04:48:20;;;;;;;25.47;7.50;;;20.10;99.90;;;20.64;67.04;95130.94;5076113;28;20831;-58
2023/09/23 04:50:47;;;;;;;18.13;7.27;;;20.10;99.90;;;20.67;66.64;95141.25;5073808;28;20479;-67
2023/09/23 04:53:14;;;;;;;19.93;8.57;;;20.10;99.90;;;20.68;66.30;95131.38;5077690;28;20459;-67
2023/09/23 04:55:42;;;;;;;20.97;9.37;;;20.20;99.90;;;20.69;66.51;95133.03;5077190;28;20898;-67
2023/09/23 04:58:12;;;;;;;24.40;8.30;;;20.20;99.90;;;20.72;66.43;95128.13;5076358;28;20467;-65
2023/09/23 05:00:39;;;;;;;40.80;9.00;;;20.30;99.90;;;20.80;66.50;95129.00;5074763;28;20927;-66
2023/09/23 05:03:08;;;;;;;19.97;7.20;;;20.30;99.90;;;20.90;65.99;95130.28;5075410;28;20927;-63
2023/09/23 05:05:37;;;;;;;25.27;7.50;;;20.40;99.90;;;20.96;66.09;95128.69;5078439;28;20520;-65
2023/09/23 05:08:09;;;;;;;31.80;8.17;;;20.40;99.90;;;21.00;65.90;95124.56;5072564;28;20891;-59
2023/09/23 05:10:39;;;;;;;37.73;9.40;;;20.50;99.90;;;21.06;66.00;95139.81;5076022;28;20906;-59
2023/09/23 05:13:08;;;;;;;18.23;7.77;;;20.50;99.90;;;21.09;65.29;95126.06;5073402;28;20466;-61
2023/09/23 05:15:35;;;;;;;21.43;7.80;;;20.60;99.90;;;21.16;65.76;95138.63;5073518;28;20486;-60
2023/09/23 05:18:03;;;;;;;25.73;9.27;;;20.60;99.90;;;21.21;65.41;95125.47;5073998;28;20464;-60
2023/09/23 05:20:31;;;;;;;30.50;9.90;;;20.70;99.90;;;21.34;65.32;95138.09;5079037;28;20915;-64
2023/09/23 05:23:05;;;;;;;27.37;10.20;;;20.80;99.90;;;21.43;65.19;95139.56;5073981;28;21073;-65
2023/09/23 05:25:33;;;;;;;25.20;9.20;;;20.90;99.90;;;21.47;64.80;95143.47;5076813;28;20477;-62
2023/09/23 05:28:02;;;;;;;21.63;9.77;;;21.00;99.90;;;21.56;64.78;95138.81;5073239;28;20802;-61
2023/09/23 05:30:29;;;;;;;24.57;8.83;;;21.00;99.90;;;21.62;64.83;95144.19;5076636;28;21025;-61
2023/09/23 05:32:57;;;;;;;22.07;8.93;;;21.10;99.90;;;21.68;64.37;95142.56;5077898;28;20446;-60
2023/09/23 05:35:24;;;;;;;25.67;7.50;;;21.10;99.90;;;21.74;64.31;95147.09;5071627;28;20479;-64
2023/09/23 05:37:52;;;;;;;29.57;9.93;;;21.20;99.90;;;21.80;63.85;95140.94;5074036;28;20486;-58
2023/09/23 05:40:27;;;;;;;23.17;9.00;;;21.30;99.90;;;21.89;63.82;95140.72;5077734;28;20528;-64
2023/09/23 05:42:54;;;;;;;29.83;8.90;;;21.30;99.90;;;21.97;64.13;95140.56;5063489;28;20612;-60
2023/09/23 05:45:23;;;;;;;20.10;8.53;;;21.40;99.90;;;22.08;63.92;95141.81;5068656;28;20478;-64
2023/09/23 05:47:50;;;;;;;31.20;9.90;;;21.50;99.90;;;22.24;63.56;95151.28;5070371;28;20451;-63
2023/09/23 05:50:19;;;;;;;27.03;9.30;;;21.60;99.90;;;22.38;63.08;95158.31;5073618;28;20510;-65
2023/09/23 05:52:46;;;;;;;27.40;9.00;;;21.80;99.90;;;22.54;63.36;95152.56;5076528;28;20535;-63
2023/09/23 05:55:14;;;;;;;28.60;8.80;;;21.90;99.90;;;22.74;62.62;95157.06;5078709;28;20502;-63
2023/09/23 05:57:42;;;;;;;33.57;7.80;;;22.10;99.90;;;22.95;62.24;95160.53;5078960;28;20453;-64
2023/09/23 06:00:11;;;;;;;25.53;7.70;;;22.30;99.90;;;23.16;61.29;95154.94;5077610;28;20482;-59
2023/09/23 06:02:39;;;;;;;19.70;8.70;;;22.50;99.90;;;23.42;61.03;95150.50;5076075;28;21040;-59
2023/09/23 06:05:07;;;;;;;23.97;7.43;;;22.70;99.90;;;23.68;60.67;95156.78;5079493;28;20473;-60
2023/09/23 06:07:34;;;;;;;31.40;7.93;;;23.00;99.90;;;23.92;60.32;95165.97;5078348;28;20974;-65
2023/09/23 06:10:03;;;;;;;19.77;7.43;;;23.20;99.90;;;24.13;59.19;95157.56;5087393;28;20470;-65
2023/09/23 06:12:31;;;;;;;19.47;6.37;;;23.50;99.90;;;24.32;58.90;95165.69;5079784;28;20466;-63
2023/09/23 06:15:00;;;;;;;18.27;7.20;;;23.60;99.30;;;24.44;58.55;95172.03;5070766;28;20472;-64
2023/09/23 06:17:28;;;;;;;23.90;7.53;;;23.80;99.20;;;24.63;57.90;95170.25;5086031;28;20454;-59
2023/09/23 06:19:56;;;;;;;17.20;8.50;;;23.90;98.70;;;24.84;57.47;95162.81;5079264;28;20478;-59
2023/09/23 06:22:24;;;;;;;24.50;8.83;;;24.10;98.30;;;25.08;57.21;95165.69;5073546;28;20995;-60
2023/09/23 06:24:51;;;;;;;26.40;8.93;;;24.30;98.10;;;25.34;56.55;95162.72;5076416;28;20477;-64
2023/09/23 06:27:19;;;;;;;29.67;8.33;;;24.60;97.70;;;25.61;56.24;95165.09;5074759;28;20466;-61
2023/09/23 06:29:47;;;;;;;29.23;8.67;;;24.80;97.10;;;25.82;55.23;95158.38;5080802;28;20481;-60
2023/09/23 06:32:15;;;;;;;23.57;9.33;;;25.10;96.40;;;26.05;55.11;95163.06;5073142;28;20458;-60
2023/09/23 06:34:42;;;;;;;28.53;9.60;;;25.30;96.10;;;26.35;54.25;95181.06;5079914;28;20458;-66
2023/09/23 06:37:10;;;;;;;28.10;8.90;;;25.60;95.50;;;26.61;53.88;95174.44;5081521;28;20457;-65
2023/09/23 06:39:37;;;;;;;26.80;7.90;;;25.80;95.00;;;26.93;53.09;95181.44;5079963;28;20471;-65
2023/09/23 06:42:05;;;;;;;18.20;7.60;;;26.20;94.50;;;27.23;52.46;95189.38;5082513;28;20555;-66
2023/09/23 06:44:32;;;;;;;24.33;7.40;;;26.40;93.80;;;27.54;52.24;95188.22;5082052;28;20466;-59
2023/09/23 06:47:02;;;;;;;30.97;7.77;;;26.80;93.30;;;27.88;51.33;95180.19;5082377;28;20462;-60
2023/09/23 06:49:30;;;;;;;24.10;9.00;;;27.10;92.50;;;28.19;50.94;95177.28;5082682;28;20476;-60
2023/09/23 06:51:58;;;;;;;25.60;9.40;;;27.40;91.50;;;28.35;50.32;95176.50;5081925;28;20454;-65
2023/09/23 06:54:25;;;;;;;33.57;8.77;;;27.60;90.90;;;28.60;50.09;95183.44;5080073;28;20468;-58
2023/09/23 06:56:54;;;;;;;25.33;8.67;;;27.80;90.40;;;28.84;48.84;95184.09;5078722;28;20519;-58
2023/09/23 06:59:21;;;;;;;20.50;7.70;;;28.00;89.70;;;29.10;49.07;95192.59;5079788;28;20545;-60
2023/09/23 07:01:49;;;;;;;30.13;8.43;;;28.30;88.10;;;29.35;48.10;95192.16;5071348;28;21032;-64
2023/09/23 07:04:16;;;;;;;18.37;6.90;;;28.50;87.50;;;29.62;47.84;95189.53;5079249;28;20562;-64
2023/09/23 07:06:46;;;;;;;21.20;7.70;;;28.80;86.00;;;29.93;46.98;95195.38;5082446;28;20445;-59
2023/09/23 07:09:13;;;;;;;27.20;9.17;;;29.10;84.70;;;30.16;46.14;95188.84;5081431;28;20553;-65
2023/09/23 07:11:40;;;;;;;22.10;8.97;;;29.30;82.60;;;30.37;46.47;95192.56;5075352;28;20451;-58
2023/09/23 07:14:07;;;;;;;33.97;9.30;;;29.50;81.40;;;30.65;45.60;95201.53;5080530;28;20471;-64
2023/09/23 07:16:35;;;;;;;33.20;9.30;;;29.70;80.20;;;30.91;45.24;95197.13;5082709;28;20445;-65
2023/09/23 07:19:02;;;;;;;24.23;8.83;;;30.00;78.80;;;31.18;45.18;95203.56;5070912;28;20289;-58
2023/09/23 07:21:29;;;;;;;22.03;8.70;;;30.30;78.60;;;31.56;45.20;95194.31;5071474;28;20239;-58
2023/09/23 07:23:59;;;;;;;23.60;8.53;;;30.60;78.20;;;32.02;44.21;95190.13;5078547;28;20216;-65
2023/09/23 07:26:26;;;;;;;18.00;8.73;;;31.00;76.80;;;32.39;42.35;95189.97;5073551;28;20192;-65
2023/09/23 07:28:54;;;;;;;24.98;8.68;;;31.40;73.60;;;32.66;42.25;95191.69;5078511;28;20207;-59
2023/09/23 07:31:22;;;;;;;27.35;8.82;;;31.80;72.70;;;32.96;41.97;95195.47;5078839;28;20254;-60
2023/09/23 07:33:49;;;;;;;22.67;7.82;;;32.10;71.90;;;33.39;41.84;95196.00;5082032;28;20231;-64
2023/09/23 07:36:17;;;;;;;24.38;6.28;;;32.50;70.60;;;33.76;40.31;95194.81;5065758;28;20196;-63
2023/09/23 07:38:44;;;;;;;22.95;7.30;;;33.00;68.70;;;34.17;39.64;95200.06;5073281;28;20671;-64
2023/09/23 07:41:14;;;;;;;25.83;7.43;;;33.50;67.10;;;34.56;39.44;95195.75;5077838;28;20319;-64
2023/09/23 07:43:42;;;;;;;19.20;6.72;;;33.90;64.80;;;34.72;38.58;95193.72;5079869;28;20191;-61
2023/09/23 07:46:10;;;;;;;24.90;8.13;;;34.20;62.80;;;34.94;38.30;95185.13;5069182;28;20718;-63
2023/09/23 07:48:37;;;;;;;22.75;7.43;;;34.50;62.20;;;35.21;37.73;95184.56;5070465;28;20192;-59
2023/09/23 07:51:04;;;;;;;26.35;7.63;;;34.70;60.90;;;35.47;37.97;95198.03;5073145;28;20676;-66
2023/09/23 07:53:31;;;;;;;23.75;6.75;;;35.00;59.50;;;35.57;36.45;95195.16;5073576;28;20284;-64
2023/09/23 07:55:59;;;;;;;23.98;7.43;;;35.10;58.50;;;35.71;37.19;95193.38;5068269;28;20204;-64
2023/09/23 07:58:27;;;;;;;21.50;7.70;;;35.20;58.90;;;35.99;36.74;95188.13;5070685;28;20583;-61
2023/09/23 08:00:55;;;;;;;35.00;8.13;;;35.40;58.50;;;36.29;36.35;95191.59;5075162;28;20564;-59
2023/09/23 08:03:26;;;;;;;21.48;6.45;;;35.70;57.90;;;36.54;36.09;95181.38;5081150;28;20202;-64
2023/09/23 08:05:53;;;;;;;21.42;7.75;;;35.90;57.30;;;36.80;35.82;95173.56;5072708;28;20227;-58
2023/09/23 08:08:21;;;;;;;20.73;7.30;;;36.20;56.50;;;37.05;35.49;95177.00;5077162;28;20199;-61
2023/09/23 08:10:49;;;;;;;21.52;7.55;;;36.50;56.00;;;37.30;35.01;95178.50;5077882;28;20231;-61
2023/09/23 08:13:17;;;;;;;29.27;7.97;;;36.80;55.10;;;37.52;34.20;95171.50;5063968;28;20198;-65
2023/09/23 08:15:46;;;;;;;19.77;7.78;;;37.00;54.00;;;37.71;34.27;95175.00;5073759;28;20211;-62
2023/09/23 08:18:13;;;;;;;19.58;7.07;;;37.20;53.90;;;37.87;33.77;95170.00;5078096;28;20214;-63
2023/09/23 08:20:41;;;;;;;20.83;8.00;;;37.40;52.90;;;37.94;33.27;95167.66;5077186;28;20224;-63
2023/09/23 08:23:08;;;;;;;23.95;7.97;;;37.50;52.50;;;38.08;33.35;95166.81;5080997;28;20253;-59
2023/09/23 08:25:35;;;;;;;24.80;7.75;;;37.60;52.40;;;38.20;32.92;95162.44;5078469;28;20676;-60
2023/09/23 08:28:03;;;;;;;21.63;7.57;;;37.70;52.10;;;38.27;32.77;95159.28;5080346;28;20237;-59
2023/09/23 08:30:31;;;;;;;15.23;7.00;;;37.70;51.50;;;38.33;32.68;95163.53;5081254;28;20289;-63
2023/09/23 08:33:00;;;;;;;29.95;7.32;;;37.70;51.20;;;38.35;32.52;95150.28;5079747;28;20253;-64
2023/09/23 08:35:28;;;;;;;21.85;8.65;;;37.70;50.50;;;38.41;32.40;95152.91;5074588;28;20216;-64
2023/09/23 08:37:55;;;;;;;25.85;7.10;;;37.70;50.60;;;38.45;31.93;95157.47;5065742;28;20199;-64
2023/09/23 08:40:23;;;;;;;31.13;8.73;;;37.70;50.00;;;38.51;32.16;95160.91;5073771;28;20212;-64
2023/09/23 08:42:53;;;;;;;17.75;9.00;;;37.80;50.00;;;38.54;32.23;95155.59;5077147;28;20704;-63
2023/09/23 08:45:21;;;;;;;24.25;8.05;;;37.80;50.00;;;38.59;31.93;95159.38;5077034;28;20267;-64
2023/09/23 08:47:48;;;;;;;19.48;7.10;;;37.80;50.00;;;38.63;31.47;95149.41;5073711;28;20760;-59
2023/09/23 08:50:17;;;;;;;17.42;6.07;;;37.90;49.70;;;38.69;31.28;95159.16;5072251;28;20644;-59
2023/09/23 08:52:44;;;;;;;28.35;7.13;;;37.90;48.80;;;38.56;30.72;95153.38;5067682;28;20210;-63
2023/09/23 08:55:12;;;;;;;25.45;6.85;;;37.80;48.00;;;38.32;31.12;95144.59;5076530;28;20223;-59
2023/09/23 08:57:39;;;;;;;21.48;7.15;;;37.60;48.00;;;38.08;31.00;95139.34;5068319;28;20196;-61
2023/09/23 09:00:10;;;;;;;20.58;6.65;;;37.30;48.20;;;38.11;31.47;95133.22;5077074;28;20230;-64
2023/09/23 09:02:37;;;;;;;23.08;7.22;;;37.30;48.80;;;38.23;31.55;95138.22;5071525;28;20676;-64
2023/09/23 09:05:05;;;;;;;21.52;7.35;;;37.30;49.00;;;38.37;31.41;95138.97;5074846;28;20574;-64
2023/09/23 09:07:35;;;;;;;20.45;7.07;;;37.40;48.80;;;38.51;30.97;95136.19;5072777;28;20204;-61
2023/09/23 09:10:03;;;;;;;28.75;7.78;;;37.60;48.30;;;38.51;30.85;95130.69;5079597;28;20320;-67
2023/09/23 09:12:31;;;;;;;26.30;6.70;;;37.70;48.00;;;38.59;31.00;95127.19;5073863;28;20242;-64
2023/09/23 09:14:59;;;;;;;25.05;6.38;;;37.70;48.10;;;38.68;30.67;95124.53;5078873;28;20223;-58
2023/09/23 09:17:27;;;;;;;21.70;6.85;;;37.80;48.10;;;38.79;30.64;95128.63;5078686;28;20200;-66
2023/09/23 09:19:54;;;;;;;24.23;7.40;;;37.90;47.80;;;38.77;30.18;95130.91;5077641;28;20223;-66
2023/09/23 09:22:21;;;;;;;32.88;8.45;;;37.90;47.30;;;38.56;30.46;95120.38;5079129;28;20236;-64
2023/09/23 09:24:50;;;;;;;31.00;7.63;;;37.80;46.70;;;38.41;30.40;95125.41;5078795;28;20230;-65
2023/09/23 09:27:17;;;;;;;21.77;6.75;;;37.60;46.90;;;38.29;30.35;95115.81;5077491;28;20204;-66
2023/09/23 09:29:45;;;;;;;24.80;7.97;;;37.40;47.00;;;38.36;31.23;95120.84;5076947;28;20305;-65
2023/09/23 09:32:13;;;;;;;22.92;7.07;;;37.40;47.50;;;38.46;30.76;95122.56;5070100;28;20195;-60
2023/09/23 09:34:45;;;;;;;37.85;8.48;;;37.50;47.80;;;38.61;30.95;95118.63;5079541;28;20615;-60
2023/09/23 09:37:13;;;;;;;25.67;7.22;;;37.70;47.50;;;38.77;30.29;95108.09;5075330;28;21803;-61
2023/09/23 09:39:45;;;;;;;23.08;7.82;;;37.80;47.10;;;38.89;30.10;95103.63;5071185;28;20645;-65
2023/09/23 09:42:14;;;;;;;35.75;7.47;;;38.00;46.80;;;38.82;29.65;95108.75;5077979;28;20250;-60
2023/09/23 09:44:41;;;;;;;27.13;6.85;;;37.90;46.20;;;38.59;29.79;95101.63;5075812;28;20227;-61
2023/09/23 09:47:09;;;;;;;30.17;7.70;;;37.80;46.20;;;38.30;29.76;95091.88;5074756;28;20199;-60
2023/09/23 09:49:36;;;;;;;38.70;7.03;;;37.60;45.70;;;37.97;30.25;95092.06;5073231;28;20212;-62
2023/09/23 09:52:04;;;;;;;18.45;7.43;;;37.30;46.10;;;37.85;30.12;95081.63;5074760;28;20200;-61
2023/09/23 09:54:32;;;;;;;31.63;9.05;;;37.10;46.20;;;37.83;30.66;95087.44;5072281;28;20281;-65
2023/09/23 09:56:59;;;;;;;30.73;7.55;;;37.00;46.60;;;37.67;30.26;95075.13;5074513;28;20234;-61
2023/09/23 09:59:28;;;;;;;22.42;6.28;;;36.80;46.40;;;37.45;30.69;95068.44;5077954;28;20281;-60
2023/09/23 10:01:57;;;;;;;28.98;7.72;;;36.70;46.70;;;37.41;30.84;95078.38;5078913;28;20227;-60
2023/09/23 10:04:28;;;;;;;19.05;7.20;;;36.60;46.80;;;37.39;30.59;95069.66;5063443;28;20216;-64
2023/09/23 10:06:56;;;;;;;17.05;7.50;;;36.60;46.90;;;37.45;30.76;95054.72;5074371;28;20199;-60
2023/09/23 10:09:27;;;;;;;27.48;7.05;;;36.50;46.90;;;37.58;30.78;95060.50;5072795;28;20221;-65
2023/09/23 10:11:56;;;;;;;27.90;7.10;;;36.70;47.20;;;37.80;30.66;95055.09;5076550;28;20199;-64
2023/09/23 10:14:24;;;;;;;23.02;6.68;;;36.80;47.40;;;38.04;30.79;95045.75;5076728;28;20241;-60
2023/09/23 10:16:59;;;;;;;32.80;8.38;;;37.00;47.40;;;38.26;30.52;95052.44;5078664;28;20211;-58
2023/09/23 10:19:31;;;;;;;17.40;8.00;;;37.20;47.30;;;38.47;30.94;95047.22;5075238;28;20303;-63